Pagrindinis puslapis
METAR-TAF:

METAR-TAF

Oro uostai :

Latakija, Sirija

platuma: 35-32N, ilguma: 035-46E, Aukštis: 7 m

Dabartinis oras

Ataskaita buvo paskelbta 36 minutes, ne 03:00 UTC
Vėjas 12 kt iš Vakarų/Pietvakarių
Temperatūra 19°C
Drėgmė 64%
Slėgis 1010 hPa
Matomumas 10 km arba daugiau
Mažai debesys ne aukštis 2600 ft
Išsisklaidę debesys ne aukštis 3000 ft

METAR: OSLK 010300Z 25012KT 9999 FEW026 TCU SCT030 19/12 Q1010

Laikas: 05:36 (03:36 UTC)

Prognozė

Prognozė galioja nuo 30 metu 18 UTC su 01 metu 18 UTC
Vėjas 15 kt iš Vakarų/Pietvakarių su gūsio iki 35 kt
Matomumas: 5000 m
Mažai debesys ne aukštis 2500 ft
Su prošvaistėmis ne aukštis 3000 ft
Apsiniaukę ne aukštis 10000 ft
lietus

TAF: OSLK 3018/0118 25015G35KT 5000 SHRA FEW025 CB BKN030 OVC100

Orai ataskaitas ir orų prognozės (METAR, TAF).

turimą stotys yra geltonos ir raudonos taškus žemėlapyje.

Perkelti pele per norėdami pamatyti stoties vardą.

Tada spustelėkite, norėdami matyti oro stebėjimo ir prognozės.

Norėdami pakeisti žemėlapį: spustelėkite ant žalios mygtukų su juodo kryžiaus žemyn,; žalią mygtuką su brūkšneliu, jei norite nutolinti; arba žalių rodyklių gretimoms žemėlapius.


METAR-TAF: